Time;durP1;ratioP1;P1;durP2;ratioP2;P2;SDS_P1;SDS_P2;PMS_P1;PMS_P2;Temp;Humidity;BMP_temperature;BMP_pressure;BME280_temperature;BME280_humidity;BME280_pressure;Samples;Min_cycle;Max_cycle;Signal;HPM_P1;HPM_P2
2023/02/19 00:02:04;;;;;;;;;;;;;;;9.39;67.96;99830.66;5093425;28;877;-73
2023/02/19 00:04:31;;;;;;;;;;;;;;;9.37;67.38;99828.28;5093275;28;810;-73
2023/02/19 00:06:57;;;;;;;;;;;;;;;9.44;67.06;99829.47;5093032;28;1902;-72
2023/02/19 00:09:24;;;;;;;;;;;;;;;9.45;66.77;99831.81;5093187;28;822;-73
2023/02/19 00:11:51;;;;;;;;;;;;;;;9.37;67.24;99822.75;5074850;28;1279;-72
2023/02/19 00:14:19;;;;;;;;;;;;;;;9.29;67.28;99825.91;5092990;28;887;-71
2023/02/19 00:16:46;;;;;;;;;;;;;;;9.29;66.89;99823.16;5092979;28;1066;-71
2023/02/19 00:19:15;;;;;;;;;;;;;;;9.22;67.90;99814.84;5092856;28;798;-73
2023/02/19 00:21:41;;;;;;;;;;;;;;;9.16;67.65;99812.50;5092902;28;794;-71
2023/02/19 00:24:10;;;;;;;;;;;;;;;9.10;68.10;99800.28;5092714;28;850;-74
2023/02/19 00:26:37;;;;;;;;;;;;;;;8.96;68.83;99797.50;5092859;28;1960;-71
2023/02/19 00:29:03;;;;;;;;;;;;;;;9.03;68.39;99799.50;5092693;28;830;-73
2023/02/19 00:31:31;;;;;;;;;;;;;;;8.91;68.94;99795.91;5092752;28;853;-73
2023/02/19 00:33:58;;;;;;;;;;;;;;;8.81;69.60;99795.91;5074371;28;1288;-73
2023/02/19 00:36:26;;;;;;;;;;;;;;;8.94;68.75;99786.06;5092651;28;830;-74
2023/02/19 00:38:53;;;;;;;;;;;;;;;8.98;68.16;99787.66;5092492;28;869;-71
2023/02/19 00:41:20;;;;;;;;;;;;;;;8.93;68.53;99779.78;5092504;28;818;-72
2023/02/19 00:43:48;;;;;;;;;;;;;;;8.86;69.12;99785.28;5092434;28;833;-72
2023/02/19 00:46:19;;;;;;;;;;;;;;;8.78;69.47;99778.19;5092332;28;1937;-73
2023/02/19 00:48:46;;;;;;;;;;;;;;;8.71;69.75;99776.19;5070596;28;1287;-73
2023/02/19 00:51:13;;;;;;;;;;;;;;;8.64;70.22;99778.13;5072158;28;1200;-72
2023/02/19 00:53:41;;;;;;;;;;;;;;;8.70;69.84;99768.31;5072337;28;850;-73
2023/02/19 00:56:08;;;;;;;;;;;;;;;8.64;70.31;99775.38;5072161;28;814;-73
2023/02/19 00:58:35;;;;;;;;;;;;;;;8.60;69.93;99758.88;5072489;28;794;-72
2023/02/19 01:01:01;;;;;;;;;;;;;;;8.63;70.12;99776.56;5071996;28;897;-73
2023/02/19 01:03:28;;;;;;;;;;;;;;;8.64;69.78;99747.81;5072608;28;755;-73
2023/02/19 01:05:54;;;;;;;;;;;;;;;8.65;69.34;99758.47;5071449;28;1942;-72
2023/02/19 01:08:21;;;;;;;;;;;;;;;8.55;69.36;99756.47;5072095;28;861;-71
2023/02/19 01:10:48;;;;;;;;;;;;;;;8.50;70.01;99752.13;5071778;28;1000;-72
2023/02/19 01:13:14;;;;;;;;;;;;;;;8.44;70.44;99761.16;5072117;28;858;-72
2023/02/19 01:15:41;;;;;;;;;;;;;;;8.39;71.37;99754.84;5071730;28;825;-73
2023/02/19 01:18:08;;;;;;;;;;;;;;;8.41;70.79;99748.16;5070449;28;1346;-71
2023/02/19 01:20:36;;;;;;;;;;;;;;;8.40;70.20;99750.09;5071872;28;833;-72
2023/02/19 01:23:03;;;;;;;;;;;;;;;8.32;70.37;99745.75;5071586;28;889;-71
2023/02/19 01:25:29;;;;;;;;;;;;;;;8.25;70.60;99738.25;5071939;28;1890;-73
2023/02/19 01:27:56;;;;;;;;;;;;;;;8.19;71.66;99739.81;5071527;28;857;-71
2023/02/19 01:30:23;;;;;;;;;;;;;;;8.15;71.35;99745.31;5071597;28;802;-72
2023/02/19 01:32:50;;;;;;;;;;;;;;;8.08;71.02;99741.72;5071549;28;873;-72
2023/02/19 01:35:16;;;;;;;;;;;;;;;7.98;72.22;99740.53;5071525;28;912;-72
2023/02/19 01:37:42;;;;;;;;;;;;;;;7.87;72.39;99740.47;5071572;28;833;-71
2023/02/19 01:40:09;;;;;;;;;;;;;;;7.76;72.45;99737.63;5071582;28;862;-72
2023/02/19 01:42:35;;;;;;;;;;;;;;;7.64;73.21;99728.91;5071434;28;794;-74
2023/02/19 01:45:18;;;;;;;;;;;;;;;7.66;73.17;99729.31;5071438;28;814;-73
2023/02/19 01:47:45;;;;;;;;;;;;;;;7.62;73.42;99721.06;5076395;28;1239;-72
2023/02/19 01:50:12;;;;;;;;;;;;;;;7.59;73.61;99723.78;5091474;28;940;-72
2023/02/19 01:52:38;;;;;;;;;;;;;;;7.54;73.94;99724.94;5091584;28;869;-72
2023/02/19 01:55:06;;;;;;;;;;;;;;;7.63;73.73;99724.59;5073393;28;1291;-73
2023/02/19 01:57:34;;;;;;;;;;;;;;;7.55;73.35;99726.50;5091655;28;875;-72
2023/02/19 02:00:07;;;;;;;;;;;;;;;7.44;73.93;99728.41;5073337;28;1208;-74
2023/02/19 02:02:34;;;;;;;;;;;;;;;7.38;74.51;99727.97;5091650;28;1070;-74
2023/02/19 02:05:02;;;;;;;;;;;;;;;7.37;74.51;99729.16;5091655;28;830;-73
2023/02/19 02:10:19;;;;;;;;;;;;;;;7.27;75.03;99732.63;5091449;28;664;-72
2023/02/19 02:12:46;;;;;;;;;;;;;;;7.14;76.01;99721.13;5091467;28;901;-72
2023/02/19 02:15:14;;;;;;;;;;;;;;;7.13;77.21;99728.59;5091382;28;818;-72
2023/02/19 02:17:55;;;;;;;;;;;;;;;7.22;76.56;99733.00;5091575;28;885;-72
2023/02/19 02:20:45;;;;;;;;;;;;;;;7.27;75.74;99716.91;5095198;28;878;-72
2023/02/19 02:23:14;;;;;;;;;;;;;;;7.27;76.14;99716.91;5094507;28;1263;-72
2023/02/19 02:25:41;;;;;;;;;;;;;;;7.31;76.11;99712.22;5095115;28;1941;-72
2023/02/19 02:28:34;;;;;;;;;;;;;;;7.41;76.09;99716.22;5095028;28;865;-72
2023/02/19 02:31:12;;;;;;;;;;;;;;;7.47;75.09;99719.41;5095040;28;822;-73
2023/02/19 02:33:59;;;;;;;;;;;;;;;7.54;74.82;99720.22;5095044;28;865;-72
2023/02/19 02:36:32;;;;;;;;;;;;;;;7.46;75.06;99723.31;5094768;28;1180;-73
2023/02/19 02:39:00;;;;;;;;;;;;;;;7.43;75.54;99730.38;5094957;28;846;-72
2023/02/19 02:41:27;;;;;;;;;;;;;;;7.47;75.00;99725.69;5094768;28;873;-72
2023/02/19 02:43:53;;;;;;;;;;;;;;;7.54;74.84;99735.97;5094830;28;802;-72
2023/02/19 02:46:25;;;;;;;;;;;;;;;7.66;73.30;99732.91;5094753;28;1890;-72
2023/02/19 02:48:54;;;;;;;;;;;;;;;7.81;72.37;99732.94;5094393;28;1206;-72
2023/02/19 02:51:28;;;;;;;;;;;;;;;7.97;71.66;99739.72;5076279;28;1077;-72
2023/02/19 02:56:40;;;;;;;;;;;;;;;8.12;69.97;99737.81;5094714;28;605;-72
2023/02/19 02:59:08;;;;;;;;;;;;;;;8.29;69.84;99738.28;5094784;28;885;-73
2023/02/19 03:02:10;;;;;;;;;;;;;;;8.50;68.25;99743.09;5094434;28;837;-73
2023/02/19 03:07:42;;;;;;;;;;;;;;;8.58;66.87;99750.19;5094305;28;1918;-74
2023/02/19 03:10:12;;;;;;;;;;;;;;;8.61;66.68;99754.91;5094663;28;853;-73
2023/02/19 03:20:59;;;;;;;;;;;;;;;8.08;69.13;99772.78;5093986;28;632;-72
2023/02/19 03:26:14;;;;;;;;;;;;;;;7.59;70.73;99770.56;5094117;28;1909;-72
2023/02/19 03:31:28;;;;;;;;;;;;;;;7.26;73.05;99784.06;5094191;28;616;-72
2023/02/19 03:33:58;;;;;;;;;;;;;;;7.07;74.45;99787.84;5093833;28;803;-72
2023/02/19 03:36:29;;;;;;;;;;;;;;;6.85;75.56;99788.78;5094298;28;821;-73
2023/02/19 03:39:01;;;;;;;;;;;;;;;6.69;76.19;99791.78;5093751;28;802;-72
2023/02/19 03:41:37;;;;;;;;;;;;;;;6.53;77.93;99781.81;5093757;28;806;-72
2023/02/19 03:44:04;;;;;;;;;;;;;;;6.43;78.54;99795.41;5093590;28;814;-74
2023/02/19 03:46:48;;;;;;;;;;;;;;;6.29;79.68;99782.31;5093574;28;1940;-74
2023/02/19 03:49:22;;;;;;;;;;;;;;;6.20;80.76;99796.31;5093340;28;1259;-72
2023/02/19 03:52:01;;;;;;;;;;;;;;;6.13;81.55;99802.50;5094107;28;826;-72
2023/02/19 03:54:46;;;;;;;;;;;;;;;6.01;83.04;99796.47;5093466;28;865;-72
2023/02/19 03:57:38;;;;;;;;;;;;;;;6.02;83.49;99798.06;5093360;28;821;-72
2023/02/19 04:00:10;;;;;;;;;;;;;;;5.97;83.57;99785.44;5089039;28;1146;-73
2023/02/19 04:03:06;;;;;;;;;;;;;;;5.87;84.25;99784.09;5093288;28;877;-72
2023/02/19 04:05:36;;;;;;;;;;;;;;;5.76;85.51;99783.19;5075979;28;1969;-72
2023/02/19 04:08:08;;;;;;;;;;;;;;;5.69;86.11;99777.56;5093182;28;786;-72
2023/02/19 04:10:36;;;;;;;;;;;;;;;5.61;87.00;99781.38;5093180;28;854;-73
2023/02/19 04:13:06;;;;;;;;;;;;;;;5.51;88.16;99791.03;5093095;28;811;-72
2023/02/19 04:15:35;;;;;;;;;;;;;;;5.55;88.47;99791.88;5074881;28;1275;-72
2023/02/19 04:18:06;;;;;;;;;;;;;;;5.60;88.62;99791.53;5092931;28;889;-72
2023/02/19 04:20:35;;;;;;;;;;;;;;;5.63;88.03;99804.53;5092937;28;834;-73
2023/02/19 04:23:02;;;;;;;;;;;;;;;5.53;88.15;99796.94;5074656;28;1176;-73
2023/02/19 04:25:30;;;;;;;;;;;;;;;5.41;89.04;99808.88;5092710;28;1890;-72
2023/02/19 04:27:57;;;;;;;;;;;;;;;5.32;90.96;99811.88;5092795;28;806;-73
2023/02/19 04:30:23;;;;;;;;;;;;;;;5.36;91.12;99814.69;5092768;28;870;-73
2023/02/19 04:32:50;;;;;;;;;;;;;;;5.40;91.00;99825.69;5092739;28;869;-73
2023/02/19 04:35:16;;;;;;;;;;;;;;;5.44;91.17;99819.13;5093000;28;891;-73
2023/02/19 04:37:43;;;;;;;;;;;;;;;5.52;90.59;99825.50;5092844;28;893;-73
2023/02/19 04:40:10;;;;;;;;;;;;;;;5.55;90.38;99821.22;5092404;28;798;-74
2023/02/19 04:42:37;;;;;;;;;;;;;;;5.59;89.82;99830.28;5092120;28;985;-72
2023/02/19 04:45:03;;;;;;;;;;;;;;;5.51;90.22;99819.22;5092698;28;865;-72
2023/02/19 04:47:32;;;;;;;;;;;;;;;5.58;89.98;99834.22;5092352;28;1886;-72
2023/02/19 04:49:58;;;;;;;;;;;;;;;5.50;90.10;99836.84;5092377;28;830;-73
2023/02/19 04:52:25;;;;;;;;;;;;;;;5.49;90.04;99827.03;5092311;28;830;-73
2023/02/19 04:54:51;;;;;;;;;;;;;;;5.43;91.13;99827.72;5092447;28;881;-74
2023/02/19 04:57:18;;;;;;;;;;;;;;;5.41;91.54;99841.00;5092302;28;806;-74
2023/02/19 04:59:45;;;;;;;;;;;;;;;5.50;91.35;99841.53;5092621;28;860;-74
2023/02/19 05:02:11;;;;;;;;;;;;;;;5.49;91.42;99845.44;5092689;28;893;-72
2023/02/19 05:04:38;;;;;;;;;;;;;;;5.48;91.50;99843.84;5074168;28;1288;-72
2023/02/19 05:07:05;;;;;;;;;;;;;;;5.47;92.12;99850.50;5092272;28;1909;-72
2023/02/19 05:09:31;;;;;;;;;;;;;;;5.63;92.09;99861.31;5074212;28;1393;-72
2023/02/19 05:11:58;;;;;;;;;;;;;;;5.84;90.58;99858.09;5092476;28;755;-74
2023/02/19 05:14:24;;;;;;;;;;;;;;;6.01;89.40;99865.84;5074191;28;1290;-72
2023/02/19 05:16:50;;;;;;;;;;;;;;;6.10;88.46;99869.13;5091972;28;849;-72
2023/02/19 05:19:17;;;;;;;;;;;;;;;6.21;87.91;99863.78;5091816;28;806;-73
2023/02/19 05:21:44;;;;;;;;;;;;;;;6.23;87.50;99868.88;5091892;28;826;-72
2023/02/19 05:24:10;;;;;;;;;;;;;;;6.15;87.95;99864.47;5091811;28;814;-72
2023/02/19 05:26:37;;;;;;;;;;;;;;;6.18;87.85;99861.75;5091751;28;1882;-72
2023/02/19 05:29:04;;;;;;;;;;;;;;;6.20;87.70;99853.94;5091735;28;846;-74
2023/02/19 05:31:32;;;;;;;;;;;;;;;6.30;87.01;99855.25;5091820;28;798;-72
2023/02/19 05:33:59;;;;;;;;;;;;;;;6.36;86.56;99845.53;5091662;28;877;-73
2023/02/19 05:36:26;;;;;;;;;;;;;;;6.41;86.31;99852.66;5091721;28;873;-72
2023/02/19 05:38:54;;;;;;;;;;;;;;;6.48;85.58;99847.25;5091654;28;798;-73
2023/02/19 05:41:21;;;;;;;;;;;;;;;6.50;85.32;99842.97;5073480;28;1182;-73
2023/02/19 05:43:48;;;;;;;;;;;;;;;6.54;85.07;99835.56;5091750;28;794;-74
2023/02/19 05:46:16;;;;;;;;;;;;;;;6.59;84.67;99837.16;5091449;28;1935;-73
2023/02/19 05:48:43;;;;;;;;;;;;;;;6.66;84.24;99842.78;5069754;28;1415;-74
2023/02/19 05:51:10;;;;;;;;;;;;;;;6.80;83.81;99847.63;5071644;28;801;-74
2023/02/19 05:53:37;;;;;;;;;;;;;;;7.03;83.08;99846.69;5075648;28;821;-70
2023/02/19 05:56:04;;;;;;;;;;;;;;;7.36;81.18;99859.56;5075851;28;836;-73
2023/02/19 05:58:31;;;;;;;;;;;;;;;7.62;79.75;99847.63;5075864;28;763;-73
2023/02/19 06:00:58;;;;;;;;;;;;;;;7.71;78.42;99850.03;5075675;28;837;-70
2023/02/19 06:03:24;;;;;;;;;;;;;;;7.84;78.45;99851.31;5075937;28;829;-73
2023/02/19 06:05:51;;;;;;;;;;;;;;;8.09;77.56;99853.44;5075558;28;1930;-73
2023/02/19 06:08:18;;;;;;;;;;;;;;;8.46;75.77;99844.19;5075258;28;846;-73
2023/02/19 06:10:44;;;;;;;;;;;;;;;8.72;74.62;99849.41;5075238;28;885;-74
2023/02/19 06:13:10;;;;;;;;;;;;;;;8.82;74.82;99849.84;5075148;28;783;-74
2023/02/19 06:15:37;;;;;;;;;;;;;;;8.76;74.24;99850.22;5075253;28;826;-73
2023/02/19 06:21:02;;;;;;;;;;;;;;;8.93;75.55;99850.66;5012905;28;1042;-74
2023/02/19 06:23:29;;;;;;;;;;;;;;;9.22;74.41;99846.00;5069805;28;1293;-73
2023/02/19 06:26:18;;;;;;;;;;;;;;;9.62;71.89;99846.78;5074836;28;1886;-73
2023/02/19 06:28:45;;;;;;;;;;;;;;;9.96;70.47;99843.59;5074876;28;845;-72
2023/02/19 06:31:12;;;;;;;;;;;;;;;9.97;70.19;99840.44;5073494;28;1431;-73
2023/02/19 06:33:39;;;;;;;;;;;;;;;9.96;70.47;99857.41;5073429;28;1275;-73
2023/02/19 06:36:07;;;;;;;;;;;;;;;9.90;70.67;99854.28;5074746;28;822;-73
2023/02/19 06:38:34;;;;;;;;;;;;;;;9.97;69.94;99853.47;5074680;28;858;-73
2023/02/19 06:41:02;;;;;;;;;;;;;;;10.09;69.94;99855.00;5074745;28;873;-73
2023/02/19 06:43:28;;;;;;;;;;;;;;;10.31;68.53;99851.06;5074593;28;853;-72
2023/02/19 06:45:57;;;;;;;;;;;;;;;10.73;67.40;99868.66;5074504;28;1886;-72
2023/02/19 06:48:24;;;;;;;;;;;;;;;11.14;66.41;99867.25;5084428;28;1271;-73
2023/02/19 06:50:51;;;;;;;;;;;;;;;11.28;64.74;99869.13;5094975;28;853;-72
2023/02/19 06:53:17;;;;;;;;;;;;;;;11.42;64.33;99871.81;5094606;28;813;-72
2023/02/19 06:55:44;;;;;;;;;;;;;;;11.49;63.01;99880.06;5094672;28;873;-74
2023/02/19 06:58:11;;;;;;;;;;;;;;;11.52;62.67;99881.22;5076628;28;1365;-72
2023/02/19 07:00:38;;;;;;;;;;;;;;;11.87;62.38;99874.59;5094542;28;857;-73
2023/02/19 07:03:05;;;;;;;;;;;;;;;12.35;60.63;99876.50;5076594;28;1260;-74
2023/02/19 07:05:31;;;;;;;;;;;;;;;12.73;58.43;99876.47;5093619;28;1917;-73
2023/02/19 07:07:58;;;;;;;;;;;;;;;13.06;56.99;99869.31;5094527;28;1008;-74
2023/02/19 07:10:25;;;;;;;;;;;;;;;13.35;55.92;99873.69;5094348;28;908;-74
2023/02/19 07:15:59;;;;;;;;;;;;;;;14.25;53.72;99881.28;5094230;28;616;-74
2023/02/19 07:18:26;;;;;;;;;;;;;;;14.62;51.66;99877.44;5094105;28;947;-73
2023/02/19 08:30:45;;;;;;;;;;;;;;;19.37;39.65;99848.91;5011669;28;646;-76
2023/02/19 08:33:15;;;;;;;;;;;;;;;18.85;39.16;99858.16;5005965;28;1142;-77
2023/02/19 08:35:42;;;;;;;;;;;;;;;18.70;39.09;99874.69;5013438;28;1201;-75
2023/02/19 08:38:10;;;;;;;;;;;;;;;18.73;39.62;99859.75;5013406;28;882;-76
2023/02/19 08:40:37;;;;;;;;;;;;;;;19.01;39.33;99852.34;5008949;28;918;-76
2023/02/19 08:43:05;;;;;;;;;;;;;;;19.06;38.51;99842.56;5013157;28;879;-75
2023/02/19 08:45:32;;;;;;;;;;;;;;;18.76;38.93;99856.84;5009254;28;1353;-76
2023/02/19 08:47:59;;;;;;;;;;;;;;;18.55;39.45;99849.22;5014148;28;1072;-77
2023/02/19 08:50:26;;;;;;;;;;;;;;;18.60;39.26;99842.25;5013268;28;796;-76
2023/02/19 08:53:18;;;;;;;;;;;;;;;18.48;39.03;99838.31;5013661;28;858;-75
2023/02/19 08:56:30;;;;;;;;;;;;;;;18.53;39.16;99837.72;5013389;28;874;-76
2023/02/19 08:58:31;;;;;;;;;;;;;;;18.67;38.99;99841.97;4996087;28;1284;-76
2023/02/19 09:00:58;;;;;;;;;;;;;;;18.87;38.70;99822.84;5028185;28;1224;-76
2023/02/19 09:03:25;;;;;;;;;;;;;;;18.89;38.65;99828.78;5013675;28;795;-78
2023/02/19 09:05:52;;;;;;;;;;;;;;;19.06;38.51;99822.94;5013967;28;1886;-77
2023/02/19 09:08:18;;;;;;;;;;;;;;;19.05;38.07;99821.38;5013289;28;779;-80
2023/02/19 09:11:05;;;;;;;;;;;;;;;19.14;38.19;99807.41;5013968;28;1247;-75
2023/02/19 09:13:32;;;;;;;;;;;;;;;19.02;37.98;99830.69;5014004;28;968;-77
2023/02/19 09:15:58;;;;;;;;;;;;;;;19.01;38.26;99829.94;5014999;28;1001;-79
2023/02/19 09:18:25;;;;;;;;;;;;;;;19.15;37.66;99823.75;5015102;28;815;-76
2023/02/19 09:20:52;;;;;;;;;;;;;;;19.22;38.07;99825.47;5012474;28;1239;-77
2023/02/19 09:23:19;;;;;;;;;;;;;;;19.22;38.16;99836.69;5016186;28;854;-78
2023/02/19 09:25:46;;;;;;;;;;;;;;;19.22;37.56;99833.88;5015193;28;1998;-77
2023/02/19 09:28:14;;;;;;;;;;;;;;;19.40;37.97;99846.41;5007836;28;1059;-77
2023/02/19 09:30:44;;;;;;;;;;;;;;;19.42;37.23;99838.31;5014199;28;1133;-78
2023/02/19 09:33:10;;;;;;;;;;;;;;;19.38;37.02;99814.00;5015038;28;843;-74
2023/02/19 09:35:39;;;;;;;;;;;;;;;19.25;37.42;99818.19;5015059;28;815;-75
2023/02/19 09:38:09;;;;;;;;;;;;;;;19.28;37.54;99826.44;5015815;28;1096;-76
2023/02/19 10:09:27;;;;;;;;;;;;;;;19.56;35.92;99801.28;5925889;22;1770;-74
2023/02/19 10:11:55;;;;;;;;;;;;;;;19.15;35.85;99814.56;5032350;28;849;-74
2023/02/19 10:14:27;;;;;;;;;;;;;;;18.81;36.66;99805.09;5025829;28;1230;-73
2023/02/19 10:17:02;;;;;;;;;;;;;;;18.66;37.51;99813.22;5031492;28;794;-73
2023/02/19 10:19:30;;;;;;;;;;;;;;;18.44;37.42;99821.66;5031534;28;802;-73
2023/02/19 10:21:56;;;;;;;;;;;;;;;18.22;37.82;99809.66;5031355;28;885;-73
2023/02/19 10:24:27;;;;;;;;;;;;;;;18.07;38.50;99804.59;5024866;28;1318;-73
2023/02/19 10:26:54;;;;;;;;;;;;;;;18.30;38.31;99794.19;5031571;28;1914;-75
2023/02/19 10:29:23;;;;;;;;;;;;;;;18.34;37.60;99789.25;5031639;28;830;-76
2023/02/19 10:32:10;;;;;;;;;;;;;;;18.47;37.91;99789.16;5032329;28;893;-75
2023/02/19 10:34:37;;;;;;;;;;;;;;;18.62;37.42;99783.81;5032334;28;1281;-76
2023/02/19 10:37:03;;;;;;;;;;;;;;;18.95;36.92;99773.72;5025211;28;846;-76
2023/02/19 10:39:37;;;;;;;;;;;;;;;19.15;36.83;99767.72;5034575;28;873;-75
2023/02/19 10:42:03;;;;;;;;;;;;;;;19.10;36.43;99768.34;5036662;28;905;-74
2023/02/19 10:47:34;;;;;;;;;;;;;;;19.57;35.87;99770.00;5037718;28;1866;-78
2023/02/19 10:50:02;;;;;;;;;;;;;;;19.76;36.12;99767.25;5036749;28;958;-77
2023/02/19 10:52:37;;;;;;;;;;;;;;;19.98;35.76;99753.03;5036653;28;854;-76
2023/02/19 10:55:23;;;;;;;;;;;;;;;19.93;35.06;99759.28;5036314;28;1309;-75
2023/02/19 10:57:50;;;;;;;;;;;;;;;19.77;35.16;99747.13;5033377;28;1086;-75
2023/02/19 11:00:17;;;;;;;;;;;;;;;19.75;35.07;99744.00;5028282;28;1062;-75
2023/02/19 11:02:44;;;;;;;;;;;;;;;19.78;36.02;99745.88;5036089;28;1361;-77
2023/02/19 11:05:10;;;;;;;;;;;;;;;19.89;34.47;99742.63;5036593;28;931;-76
2023/02/19 11:07:42;;;;;;;;;;;;;;;19.92;35.34;99729.69;5035215;28;1951;-76
2023/02/19 11:10:18;;;;;;;;;;;;;;;20.21;35.38;99728.41;5035920;28;1709;-77
2023/02/19 11:12:46;;;;;;;;;;;;;;;20.33;34.38;99725.41;5036253;28;827;-74
2023/02/19 11:15:20;;;;;;;;;;;;;;;20.39;34.13;99726.31;5035550;28;830;-74
2023/02/19 11:18:07;;;;;;;;;;;;;;;20.39;34.13;99720.69;5036627;28;810;-73
2023/02/19 11:20:34;;;;;;;;;;;;;;;20.09;34.28;99716.09;5035812;28;1148;-76
2023/02/19 11:23:14;;;;;;;;;;;;;;;20.29;34.80;99724.78;5035952;28;799;-77
2023/02/19 11:25:44;;;;;;;;;;;;;;;20.26;34.14;99706.06;5035071;28;1902;-74
2023/02/19 11:28:19;;;;;;;;;;;;;;;20.16;34.55;99708.16;5034773;28;752;-74
2023/02/19 11:30:46;;;;;;;;;;;;;;;20.37;34.53;99694.34;5034926;28;931;-74
2023/02/19 11:33:13;;;;;;;;;;;;;;;20.71;33.68;99698.78;5034732;28;865;-74
2023/02/19 11:35:39;;;;;;;;;;;;;;;20.94;31.95;99685.25;5035860;28;862;-75
2023/02/19 11:38:07;;;;;;;;;;;;;;;20.96;32.09;99682.72;5034680;28;799;-75
2023/02/19 11:40:37;;;;;;;;;;;;;;;20.87;32.32;99682.78;5033673;28;849;-74
2023/02/19 11:43:23;;;;;;;;;;;;;;;21.15;32.28;99669.34;5034039;28;791;-75
2023/02/19 11:46:05;;;;;;;;;;;;;;;21.19;32.48;99667.13;5034208;28;1924;-76
2023/02/19 11:48:40;;;;;;;;;;;;;;;21.37;32.07;99663.41;5030009;28;1229;-75
2023/02/19 12:10:19;;;;;;;;;;;;;;;22.09;30.29;99643.53;5839102;22;1781;-73
2023/02/19 12:12:54;;;;;;;;;;;;;;;21.84;29.86;99644.13;5029985;28;1414;-75
2023/02/19 12:15:32;;;;;;;;;;;;;;;21.75;29.45;99636.56;5026440;28;1118;-74
2023/02/19 12:18:08;;;;;;;;;;;;;;;21.47;29.86;99648.06;5032047;28;893;-74
2023/02/19 12:20:34;;;;;;;;;;;;;;;21.51;30.13;99640.22;5033023;28;775;-75
2023/02/19 12:29:21;;;;;;;;;;;;;;;21.55;29.90;99628.75;5032822;28;668;-74
2023/02/19 12:31:53;;;;;;;;;;;;;;;21.32;30.71;99630.34;5033703;28;849;-75
2023/02/19 12:34:46;;;;;;;;;;;;;;;21.27;31.02;99626.16;5034872;28;822;-78
2023/02/19 12:37:19;;;;;;;;;;;;;;;21.75;30.61;99625.28;5030996;28;1184;-75
2023/02/19 12:39:59;;;;;;;;;;;;;;;21.85;29.59;99614.72;5034035;28;842;-74
2023/02/19 12:42:41;;;;;;;;;;;;;;;21.38;30.45;99617.19;5032518;28;873;-73
2023/02/19 12:45:19;;;;;;;;;;;;;;;21.45;31.17;99616.81;5033343;28;810;-74
2023/02/19 12:48:15;;;;;;;;;;;;;;;22.08;31.04;99613.81;5030071;28;1894;-75
2023/02/19 12:50:44;;;;;;;;;;;;;;;21.98;29.81;99601.91;5011615;28;1204;-71
2023/02/19 12:53:22;;;;;;;;;;;;;;;21.82;30.48;99616.47;5032368;28;790;-73
2023/02/19 12:55:50;;;;;;;;;;;;;;;21.72;30.60;99621.44;5032686;28;854;-74
2023/02/19 12:58:43;;;;;;;;;;;;;;;21.68;30.99;99615.22;5032264;28;866;-74
2023/02/19 13:01:13;;;;;;;;;;;;;;;21.39;31.04;99611.06;5029849;28;1049;-72
2023/02/19 13:03:43;;;;;;;;;;;;;;;21.39;31.37;99604.66;5032551;28;893;-73
2023/02/19 13:06:10;;;;;;;;;;;;;;;21.52;31.12;99608.00;5032300;28;1882;-75
2023/02/19 13:08:40;;;;;;;;;;;;;;;21.58;31.40;99611.69;5032373;28;826;-73
2023/02/19 13:11:13;;;;;;;;;;;;;;;21.78;31.16;99610.25;5032803;28;1471;-75
2023/02/19 13:13:54;;;;;;;;;;;;;;;21.90;30.92;99609.19;5033299;28;811;-73
2023/02/19 13:16:22;;;;;;;;;;;;;;;21.50;31.64;99609.75;5032197;28;1056;-74
2023/02/19 13:19:06;;;;;;;;;;;;;;;21.60;31.95;99614.03;5032708;28;874;-76
2023/02/19 13:24:39;;;;;;;;;;;;;;;21.53;32.14;99614.41;5033561;28;586;-75
2023/02/19 13:27:24;;;;;;;;;;;;;;;21.31;32.51;99618.31;5032551;28;1906;-75
2023/02/19 13:30:08;;;;;;;;;;;;;;;21.12;32.52;99619.72;5032491;28;814;-75
2023/02/19 13:32:41;;;;;;;;;;;;;;;21.13;32.42;99610.03;5032901;28;861;-75
2023/02/19 13:35:20;;;;;;;;;;;;;;;21.08;32.59;99608.69;5031583;28;901;-74
2023/02/19 13:37:48;;;;;;;;;;;;;;;21.09;32.71;99596.16;5031841;28;964;-73
2023/02/19 13:40:34;;;;;;;;;;;;;;;21.38;32.64;99586.25;5031603;28;845;-74
2023/02/19 13:43:02;;;;;;;;;;;;;;;21.97;31.82;99583.47;5031485;28;916;-72
2023/02/19 13:45:29;;;;;;;;;;;;;;;22.18;31.19;99586.34;5031676;28;862;-71
2023/02/19 13:47:58;;;;;;;;;;;;;;;21.93;31.45;99584.94;5031447;28;1977;-72
2023/02/19 13:50:27;;;;;;;;;;;;;;;21.81;31.82;99581.16;5031615;28;861;-74
2023/02/19 13:52:55;;;;;;;;;;;;;;;21.88;32.09;99577.19;5031633;28;897;-73
2023/02/19 13:55:41;;;;;;;;;;;;;;;21.60;32.60;99572.63;5024814;28;1420;-73
2023/02/19 13:58:26;;;;;;;;;;;;;;;20.97;32.92;99557.84;5031655;28;825;-73
2023/02/19 14:00:53;;;;;;;;;;;;;;;20.17;34.82;99563.78;5031316;28;826;-72
2023/02/19 14:03:27;;;;;;;;;;;;;;;19.84;34.89;99574.19;5024540;28;1565;-73
2023/02/19 14:06:03;;;;;;;;;;;;;;;19.65;35.71;99579.03;5031259;28;1935;-72
2023/02/19 14:08:59;;;;;;;;;;;;;;;19.50;35.74;99576.09;5031548;28;810;-75
2023/02/19 14:11:41;;;;;;;;;;;;;;;19.34;36.29;99572.38;5030299;28;1367;-72
2023/02/19 14:14:46;;;;;;;;;;;;;;;19.41;36.34;99581.72;5066332;28;890;-73
2023/02/19 14:17:36;;;;;;;;;;;;;;;19.60;36.44;99591.66;4993820;28;875;-74
2023/02/19 14:20:10;;;;;;;;;;;;;;;19.74;35.94;99588.25;4993961;28;803;-72
2023/02/19 14:22:46;;;;;;;;;;;;;;;19.75;35.78;99586.97;4993637;28;1008;-71
2023/02/19 14:25:28;;;;;;;;;;;;;;;19.69;35.82;99594.44;4993565;28;854;-72
2023/02/19 14:27:57;;;;;;;;;;;;;;;19.98;35.74;99595.97;4993462;28;1906;-72
2023/02/19 14:30:24;;;;;;;;;;;;;;;20.44;35.12;99595.78;4977165;28;1276;-72
2023/02/19 14:32:50;;;;;;;;;;;;;;;20.21;35.21;99574.84;4993516;28;929;-72
2023/02/19 14:35:20;;;;;;;;;;;;;;;19.85;35.28;99606.59;4993274;28;1126;-74
2023/02/19 14:37:48;;;;;;;;;;;;;;;19.53;36.15;99592.00;4993269;28;1149;-74
2023/02/19 14:40:18;;;;;;;;;;;;;;;19.27;36.53;99583.16;4993557;28;912;-73
2023/02/19 14:42:46;;;;;;;;;;;;;;;19.12;37.08;99574.59;4993145;28;1379;-74
2023/02/19 14:45:15;;;;;;;;;;;;;;;18.94;37.38;99578.16;4993307;28;898;-71
2023/02/19 14:47:43;;;;;;;;;;;;;;;18.76;37.90;99567.69;5025745;28;1882;-71
2023/02/19 14:50:15;;;;;;;;;;;;;;;18.64;38.04;99574.97;5074958;28;798;-72
2023/02/19 14:52:44;;;;;;;;;;;;;;;18.62;37.86;99569.06;5056468;28;1239;-71
2023/02/19 14:55:22;;;;;;;;;;;;;;;18.62;37.87;99576.69;5074340;28;865;-71
2023/02/19 14:57:51;;;;;;;;;;;;;;;18.83;37.89;99581.41;5074346;28;818;-73
2023/02/19 15:00:25;;;;;;;;;;;;;;;18.94;37.08;99584.53;5074535;28;822;-71
2023/02/19 15:02:54;;;;;;;;;;;;;;;19.00;37.07;99581.13;5074326;28;804;-72
2023/02/19 15:05:23;;;;;;;;;;;;;;;19.09;36.97;99576.28;5074046;28;897;-73
2023/02/19 15:07:50;;;;;;;;;;;;;;;19.13;37.07;99570.53;5074059;28;1874;-71
2023/02/19 15:10:18;;;;;;;;;;;;;;;19.13;36.87;99578.94;5073991;28;1138;-70
2023/02/19 15:12:52;;;;;;;;;;;;;;;18.94;36.93;99584.53;5074089;28;1037;-71
2023/02/19 15:15:23;;;;;;;;;;;;;;;18.72;37.33;99572.66;5074358;28;912;-72
2023/02/19 15:17:51;;;;;;;;;;;;;;;18.67;37.65;99578.84;5073905;28;857;-72
2023/02/19 15:20:51;;;;;;;;;;;;;;;;;;;;;
2023/02/19 15:23:06;;;;;;;;;;;;;;;18.47;38.12;99580.06;5059720;28;975;-72
2023/02/19 15:25:35;;;;;;;;;;;;;;;18.21;38.41;99587.13;5073290;28;870;-71
2023/02/19 15:28:28;;;;;;;;;;;;;;;17.96;38.88;99583.28;5074022;28;1914;-72
2023/02/19 15:30:58;;;;;;;;;;;;;;;17.77;39.40;99590.75;5070586;28;1092;-71
2023/02/19 15:33:28;;;;;;;;;;;;;;;17.67;39.69;99589.19;5073688;28;854;-72
2023/02/19 15:35:56;;;;;;;;;;;;;;;17.54;39.90;99581.63;5073639;28;826;-71
2023/02/19 15:38:23;;;;;;;;;;;;;;;17.52;40.26;99597.31;5073602;28;867;-71
2023/02/19 15:40:50;;;;;;;;;;;;;;;17.46;40.45;99601.91;5073682;28;881;-72
2023/02/19 15:43:24;;;;;;;;;;;;;;;17.34;40.60;99598.72;5073541;28;873;-72
2023/02/19 15:45:53;;;;;;;;;;;;;;;17.15;41.01;99608.19;5073536;28;1909;-72
2023/02/19 15:48:24;;;;;;;;;;;;;;;17.10;41.30;99612.31;5073493;28;884;-72
2023/02/19 15:50:54;;;;;;;;;;;;;;;17.04;41.47;99605.75;5073453;28;817;-71
2023/02/19 15:53:35;;;;;;;;;;;;;;;;;;;;;
2023/02/19 15:56:19;;;;;;;;;;;;;;;16.94;41.64;99610.50;5031116;28;1381;-72
2023/02/19 15:58:48;;;;;;;;;;;;;;;16.91;41.86;99610.59;5031475;28;823;-71
2023/02/19 16:01:14;;;;;;;;;;;;;;;16.78;42.10;99616.19;5031187;28;862;-71
2023/02/19 16:03:41;;;;;;;;;;;;;;;16.60;42.70;99608.41;5031143;28;842;-71
2023/02/19 16:06:12;;;;;;;;;;;;;;;16.52;43.18;99610.66;5030967;28;1906;-71
2023/02/19 16:08:46;;;;;;;;;;;;;;;16.42;43.05;99602.63;5014313;28;1290;-72